Flight Track Log - Related Links

Times and Time Zones

All times are in EDT time to prevent confusion due to time zone crossing. See the SWA902 flight status page for this flight to view local times or setup timezone preferences in your user account.

Time Position Orientation Groundspeed Altitude Reporting Facility
EDT Latitude Longitude Course Direction KTS MPH feet Rate Location/Type
Sun 09:39:58 PM 41.3131 -95.9119 322° Northwest 147 169 1,700  Level Minneapolis Center
Sun 09:40:52 PM 41.3514 -95.9519 322° Northwest 207 238 3,500 1,833 Climbing Minneapolis Center
Sun 09:41:10 PM 41.3636 -95.9578 340° North 200 230 3,900 2,203 Climbing Minneapolis Center
Sun 09:42:11 PM 41.4242 -96.0058 329° Northwest 242 278 6,400 2,754 Climbing Minneapolis Center
Sun 09:43:12 PM 41.4436 -96.0861 288° West 258 297 9,500 2,341 Climbing Minneapolis Center
Sun 09:44:14 PM 41.4467 -96.1886 272° West 275 316 11,200 2,732 Climbing Minneapolis Center
Sun 09:45:15 PM 41.4669 -96.3364 280° West 332 382 15,100 3,443 Climbing Minneapolis Center
Sun 09:46:16 PM 41.4656 -96.4664 269° West 352 405 18,200 3,049 Climbing Minneapolis Center
Sun 09:47:17 PM 41.4611 -96.6000 268° West 362 417 21,300 2,732 Climbing Minneapolis Center
Sun 09:48:19 PM 41.4553 -96.7389 267° West 372 428 23,800 2,293 Climbing Minneapolis Center
Sun 09:49:20 PM 41.4478 -96.8831 266° West 386 444 26,000 2,066 Climbing Minneapolis Center
Sun 09:50:21 PM 41.4414 -97.0311 267° West 398 458 28,000 2,016 Climbing Minneapolis Center
Sun 09:51:22 PM 41.4353 -97.1828 267° West 407 468 30,100 2,311 Climbing Minneapolis Center
Sun 09:52:23 PM 41.4278 -97.3325 266° West 406 467 32,700 1,918 Climbing Minneapolis Center
Sun 09:53:24 PM 41.4211 -97.4767 267° West 396 456 34,000 639 Climbing Minneapolis Center
Sun 09:54:25 PM 41.4136 -97.6208 266° West 392 451 34,000  Level Minneapolis Center
Sun 09:55:27 PM 41.4064 -97.7639 266° West 389 448 34,000  Level Minneapolis Center
Sun 09:56:28 PM 41.3983 -97.9344 266° West 387 445 34,000  Level Minneapolis Center
Sun 09:57:29 PM 41.3908 -98.0783 266° West 388 447 34,000  Level Minneapolis Center
Sun 09:58:30 PM 41.3828 -98.2175 266° West 391 450 34,000  Level Minneapolis Center
Sun 09:59:33 PM 41.3742 -98.3617 265° West 393 452 34,000  Level Minneapolis Center
Sun 10:00:34 PM 41.3392 -98.5064 252° West 395 455 34,000 443 Level Minneapolis Center
Sun 10:01:35 PM 41.3044 -98.6442 251° West 395 455 34,900 984 Climbing Minneapolis Center
Sun 10:02:36 PM 41.2700 -98.7842 252° West 397 457 36,000 606 Climbing Minneapolis Center
Sun 10:03:24 PM 41.2369 -98.9156 252° West 400 460 36,000  Level Denver Center
Sun 10:04:26 PM 41.2042 -99.0514 252° West 402 463 36,000 484 Level Denver Center
Sun 10:05:28 PM 41.1689 -99.1894 251° West 398 458 37,000 968 Climbing Denver Center
Sun 10:06:30 PM 41.1333 -99.3269 251° West 396 456 38,000 488 Climbing Denver Center
Sun 10:07:31 PM 41.0972 -99.4708 252° West 397 457 38,000  Level Denver Center
Sun 10:08:33 PM 41.0558 -99.6331 251° West 399 459 38,000  Level Denver Center
Sun 10:09:35 PM 41.0211 -99.7700 251° West 395 455 38,000  Level Denver Center
Sun 10:10:37 PM 40.9839 -99.9108 251° West 394 453 38,000  Level Denver Center
Sun 10:11:39 PM 40.9497 -100.0414 251° West 392 451 38,000  Level Denver Center
Sun 10:12:41 PM 40.9100 -100.1947 251° West 394 453 38,000  Level Denver Center
Sun 10:13:42 PM 40.8758 -100.3253 251° West 394 453 38,000  Level Denver Center
Sun 10:14:44 PM 40.8344 -100.4792 250° West 396 456 38,000  Level Denver Center
Sun 10:15:46 PM 40.7989 -100.6122 251° West 398 458 38,000  Level Denver Center
Sun 10:16:48 PM 40.7714 -100.7536 256° West 412 474 38,000  Level Denver Center
Sun 10:17:50 PM 40.7475 -100.8933 257° West 400 460 38,000  Level Denver Center
Sun 10:19:04 PM 40.7214 -101.0536 258° West 399 459 38,000  Level Denver Center
Sun 10:20:06 PM 40.6908 -101.2333 257° West 395 455 38,000  Level Denver Center
Sun 10:21:08 PM 40.6675 -101.3675 257° West 394 453 38,000  Level Denver Center
Sun 10:22:10 PM 40.6394 -101.5236 257° West 393 452 38,000  Level Denver Center
Sun 10:23:12 PM 40.6161 -101.6558 257° West 388 447 38,000  Level Denver Center
Sun 10:24:13 PM 40.5922 -101.7867 257° West 385 443 38,000  Level Denver Center
Sun 10:25:15 PM 40.5650 -101.9372 257° West 380 437 38,000  Level Denver Center
Sun 10:26:17 PM 40.5400 -102.0650 256° West 377 434 38,000  Level Denver Center
Sun 10:27:19 PM 40.5125 -102.2164 257° West 383 441 38,000  Level Denver Center
Sun 10:28:20 PM 40.4892 -102.3444 257° West 379 436 38,000  Level Denver Center
Sun 10:29:22 PM 40.4608 -102.4931 256° West 377 434 38,000  Level Denver Center
Sun 10:30:24 PM 40.4381 -102.6211 257° West 377 434 38,000 -290 Level Denver Center
Sun 10:31:26 PM 40.4117 -102.7542 255° West 376 433 37,400 -1,707 Descending Denver Center
Sun 10:32:27 PM 40.3872 -102.8894 257° West 379 436 34,500 -2,780 Descending Denver Center
Sun 10:33:29 PM 40.3611 -103.0289 256° West 388 447 31,700 -2,710 Descending Denver Center
Sun 10:34:31 PM 40.3303 -103.1847 255° West 377 434 28,900 -2,488 Descending Denver Center
Sun 10:35:32 PM 40.3053 -103.3144 256° West 369 425 26,600 -2,146 Descending Denver Center
Sun 10:36:34 PM 40.2803 -103.4417 256° West 358 412 24,500 -2,081 Descending Denver Center
Sun 10:37:36 PM 40.2567 -103.5669 256° West 351 404 22,300 -1,902 Descending Denver Center
Sun 10:38:37 PM 40.2328 -103.6881 256° West 342 394 20,600 -1,756 Descending Denver Center
Sun 10:39:39 PM 40.2083 -103.8164 256° West 342 394 18,700 -1,452 Descending Denver Center
Sun 10:40:41 PM 40.2064 -103.9233 269° West 293 337 17,600 -1,317 Descending Denver Center
Sun 10:41:42 PM 40.2178 -104.0289 278° West 293 337 16,000 -1,561 Descending Denver Center
Sun 10:42:44 PM 40.2264 -104.1361 276° West 278 320 14,400 -1,452 Descending Denver Center
Sun 10:43:46 PM 40.2361 -104.2353 277° West 275 316 13,000 -1,171 Descending Denver Center
Sun 10:44:47 PM 40.2444 -104.3283 277° West 260 299 12,000 -1,268 Descending Denver Center
Sun 10:45:49 PM 40.2389 -104.4172 265° West 239 275 10,400 -1,463 Descending Denver Center
Sun 10:46:50 PM 40.2144 -104.5064 250° West 259 298 9,000 -683 Descending Denver Center
Sun 10:47:52 PM 40.1575 -104.5547 213° Southwest 252 290 9,000  Level Denver Center
Sun 10:48:35 PM 40.1167 -104.5833 208° Southwest 197 227 9,000 -404 Level Denver TRACON
Sun 10:49:36 PM 40.0667 -104.6167 207° Southwest 187 215 8,300 -675 Descending Denver TRACON
Sun 10:49:55 PM 40.0614 -104.6264 235° Southwest 183 211 8,100 -675 Descending Denver Center
Sun 10:50:56 PM 40.0142 -104.6611 209° Southwest 192 221 7,400 -585 Descending Denver Center
Sun 10:51:58 PM 39.9633 -104.6858 200° South 179 206 6,900 -732 Descending Denver Center
Sun 10:52:59 PM 39.9225 -104.6867 181° South 148 170 5,900 -780 Descending Denver Center
Sun 10:54:01 PM 39.8872 -104.6875 181° South 138 159 5,300 -581 Descending Denver Center
Sun 10:56:00 PM 39.8617 -104.6732 North  Level Estimated
Sun 11:03:00 PM 39.8617 -104.6732 North  Level Estimated
Sun 11:04:00 PM 39.8617 -104.6732 North  Level Estimated

Login

Don't have an account? Register now (free) for customized features, flight alerts, and more!